Goodsprings, AL (35560)

1:08 PM CST on November 18, 2017 (GMT -0600)
Slopecrest | | Change Station
Active Advisory: Wind Advisory

Elev 285 ft 33.67 °N, 87.17 °W | Updated 8 seconds ago

Overcast
Overcast
74.7 °F
Feels Like 76 °F
N
1.7
Wind Variable Wind from NNW

Today
High -- | Low -- °F
--% Chance of Precip.
Yesterday
High -- | Low -- °F
Precip. -- in
Pressure 29.73 in
Visibility 10.0 miles
Clouds Few 2800 ft
Few 3300 ft
Few 4700 ft
Heat Index 76 °F
Dew Point 66 °F
Humidity 74%
Rainfall 0.00 in
Snow Depth Not available.
6:23 AM 4:44 PM
New Moon, 0% visible
METAR KJFX 181855Z AUTO 01006G13KT 10SM FEW028 FEW033 FEW047 23/17 A2973 RMK AO2 PWINO
Pressure 29.73 in
Visibility 10.0 miles
Clouds Few 2800 ft
Few 3300 ft
Few 4700 ft
Heat Index 76 °F
Dew Point 66 °F
Humidity 74%
Rainfall 0.00 in
Snow Depth Not available.
6:23 AM 4:44 PM
New Moon, 0% visible
METAR KJFX 181855Z AUTO 01006G13KT 10SM FEW028 FEW033 FEW047 23/17 A2973 RMK AO2 PWINO

Get Your Daily Forecast Email!

Thanks for signing up!

Be on the lookout for a verification email in your inbox.

You'll start receiving severe weather alerts in your inbox..

×

10-Day Weather Forecast

Almanac

Astronomy

Nov. 18, 2017 Rise Set
Actual Time
Civil Twilight
Nautical Twilight
Astronomical Twilight
Moon
Length of Visible Light
Length of Day
Tomorrow will be .
, % of the Moon is Illuminated

Today's Extremes

State Highs State Lows

Community

WunderPhotos

Category 6

Welcome to Category 6. This is the collective home for Weather Underground's featured writeups by Dr. Jeff Masters (right), Bob Henson (left), Chris Burt, and other regular contributors.

Nearby

Air Quality

  Air Quality AQ Index Pollutant
Not available.

Snow Depth

Station Depth Elevation

Earthquake Activity

City Distance Mag. Time & Date
Minimum magnitude displayed is 2.5.

Coastal Water Temperatures

Place Temperature

Stations

Nearby Weather Stations

Station Location Temp. Windchill Dew Point Humidity Wind Precip. Elev Updated Type
                   

Watches & Warnings

Wind Advisory
Issued: 10:04 AM CST Nov. 18, 2017 – National Weather Service

... Wind Advisory in effect until 3 am CST Sunday...

The National Weather Service in Birmingham has issued a Wind
Advisory, which is in effect until 3 am CST Sunday.

* Timing... through 3 am, but gusts should begin diminishing west
to east after 10 PM

* winds... sustained winds around 15 mph and wind gust to 35 mph
possible

* impacts... a few tree limbs may be broken off and non-secured
outdoor items may be knocked over. Driving will also be
hazardous for high profile vehicles, especially driving in a an
east or west direction.

Precautionary/preparedness actions...

A Wind Advisory means that wind gusts of 35 mph are expected.
Winds this strong can make driving difficult... especially for
high profile vehicles. Use extra caution.